Hauptseite
METAR-TAF:

METAR-TAF

Flughäfen :

Flughafen Monastir

Monastir, Tunesien

Breite: 35-46N, Länge: 010-45E, Höhe: 2 m

Beobachtung

Neuester Wetterbericht von vor 28 Minuten, um 21:00 UTC
Wind 6 kt aus Süd/Südost
Temperatur 17°C
Luftfeuchtigkeit 77%
Luftdruck 1010 hPa
Sichtweite: 8000 m

METAR: DTMB 182100Z 16006KT 8000 NSC 17/13 Q1010

Zeit: 22:28 (21:28 UTC)

Prognose

Neuester Wetterbericht von vor 4 Stunden und 6 Minuten, um 17:22 UTC
Gültige Prognose vom 18 um 18 UTC bis 19 um 18 UTC
Wind 5 kt aus Ost
Sichtweite 10 km oder mehr
Leicht bewölkt in der Höhe von 2000 ft
Zeitweise
vom 19 um 04 UTC bis 19 um 10 UTC
Wind 15 kt aus Südwest, Böen bis zu 25 kt

TAF: DTMB 181722Z 1818/1918 09005KT 9999 FEW020 TEMPO 1904/1910 22015G25KT

Wetterbeobachtungen und Prognosen von mehr als 4000 Flughäfen (METAR und TAF Bericht).

Die verfügbaren Stationen werden durch gelbe und rote Markierungen auf der Karte dargestellt.

Führen Sie die Maus auf sie, um den Namen der Station zu sehen.

Darauf klicken, um die Beobachtung von Wetterbeobachtungen und Prognosen zu sehen.

Um die Karte zu ändern : klicken Sie auf den grünen Tasten mit einem schwarzen Kreuz Zum Vergrößern, auf den grünen Button mit einem Gedankenstrich zu verkleinern, oder auf die grünen Pfeile für benachbarte Karten.


METAR-TAF: